< Typhoon 198624 1986 Season Typhoon 198626 >
Typhoon 198625 (JOE)
General InformationTrack Information on Google MapsDetailed Wind InformationList of All Images || Disaster Info.ResourceGoogle EarthGE AnimationAtom FeedGeoJSON
Detalied Best Track (Time Zone = UTC)
Year Month Day Hour Lat. Long. Pressure (hPa) Wind (kt) Class Image Chart
1986 11 17 18 11.3 130.9 1006 0 2 Image Chart
1986 11 18 00 11.8 130.1 1006 0 2 Image Chart
1986 11 18 06 12.4 129.4 1004 0 2 Image Chart
1986 11 18 12 12.8 128.7 1000 0 2 Image Chart
1986 11 18 18 13.1 127.8 996 35 3 Image Chart
1986 11 19 00 13.4 127.0 992 40 3 Image Chart
1986 11 19 06 13.9 126.2 990 45 3 Image Chart
1986 11 19 12 14.4 125.4 985 50 4 Image Chart
1986 11 19 18 14.9 124.8 980 55 4 Image Chart
1986 11 20 00 15.3 124.3 975 65 5 Image Chart
1986 11 20 06 15.9 124.2 965 70 5 Image Chart
1986 11 20 12 16.7 124.2 960 75 5 Image Chart
1986 11 20 18 17.4 124.0 950 75 5 Image Chart
1986 11 21 00 18.1 123.9 940 85 5 Image Chart
1986 11 21 06 18.9 123.9 940 85 5 Image Chart
1986 11 21 12 19.7 124.0 945 85 5 Image Chart
1986 11 21 18 20.1 124.0 950 80 5 Image Chart
1986 11 22 00 20.6 124.0 955 75 5 Image Chart
1986 11 22 06 21.1 124.2 960 75 5 Image Chart
1986 11 22 12 21.6 124.4 970 70 5 Image Chart
1986 11 22 18 22.2 124.7 975 65 5 Image Chart
1986 11 23 00 22.6 124.9 980 60 4 Image Chart
1986 11 23 06 23.0 125.1 990 55 4 Image Chart
1986 11 23 12 23.4 125.4 992 50 4 Image Chart
1986 11 23 18 23.7 126.0 996 50 4 Image Chart
1986 11 24 00 24.0 126.4 998 40 3 Image Chart
1986 11 24 06 24.3 126.7 1004 0 2 Image Chart
1986 11 24 12 24.6 127.0 1008 0 2 Image Chart
1986 11 24 18 24.5 127.1 1008 0 2 Image Chart
1986 11 25 00 23.8 127.6 1008 0 2 Image Chart
1986 11 25 06 23.0 128.0 1012 0 2 Image Chart
1986 11 25 12 22.0 128.0 1016 0 2 Image Chart
Japan Meteorological Agency Best Track Data | Correction Date : 1992-10-21
< Typhoon 198624 1986 Season Typhoon 198626 >

Help